createdAt,value
2016-05-31T00:00:52.377Z,0
2016-05-31T00:01:52.520Z,0
2016-05-31T00:02:52.336Z,0
2016-05-31T00:03:52.322Z,0
2016-05-31T00:04:52.450Z,0
2016-05-31T00:05:52.422Z,0
2016-05-31T00:06:52.408Z,0
2016-05-31T00:07:52.568Z,0
2016-05-31T00:08:52.383Z,0
2016-05-31T00:09:52.371Z,0
2016-05-31T00:10:52.357Z,0
2016-05-31T00:11:52.157Z,0
2016-05-31T00:12:52.299Z,0
2016-05-31T00:13:52.271Z,0
2016-05-31T00:14:52.259Z,0
2016-05-31T00:15:52.246Z,0
2016-05-31T00:16:52.060Z,0
2016-05-31T00:17:52.031Z,0
2016-05-31T00:18:52.004Z,0
2016-05-31T00:19:52.148Z,0
2016-05-31T00:20:52.134Z,0
2016-05-31T00:21:51.948Z,0
2016-05-31T00:22:51.951Z,0
2016-05-31T00:23:52.063Z,0
2016-05-31T00:24:52.051Z,0
2016-05-31T00:25:52.006Z,0
2016-05-31T00:26:51.869Z,0
2016-05-31T00:27:51.839Z,0
2016-05-31T00:28:51.828Z,0
2016-05-31T00:29:51.783Z,0
2016-05-31T00:30:51.614Z,0
2016-05-31T00:31:51.897Z,0
2016-05-31T00:32:51.885Z,0
2016-05-31T00:33:51.872Z,0
2016-05-31T00:34:51.703Z,0
2016-05-31T00:35:51.815Z,0
2016-05-31T00:36:51.802Z,0
2016-05-31T00:37:51.663Z,0
2016-05-31T00:38:51.620Z,0
2016-05-31T00:39:51.591Z,0
2016-05-31T00:40:51.562Z,0
2016-05-31T00:41:51.534Z,0
2016-05-31T00:42:51.505Z,0
2016-05-31T00:43:51.649Z,0
2016-05-31T00:44:51.479Z,0
2016-05-31T00:45:51.623Z,0
2016-05-31T00:46:51.610Z,0
2016-05-31T00:47:51.410Z,0
2016-05-31T00:48:51.397Z,0
2016-05-31T00:49:51.540Z,0
2016-05-31T00:50:51.386Z,0
2016-05-31T00:51:51.359Z,0
2016-05-31T00:52:51.189Z,0
2016-05-31T00:53:51.457Z,0
2016-05-31T00:54:51.272Z,0
2016-05-31T00:55:51.103Z,0
2016-05-31T00:56:51.090Z,0
2016-05-31T00:57:51.233Z,0
2016-05-31T00:58:51.361Z,0
2016-05-31T00:59:51.176Z,0
2016-05-31T01:00:51.303Z,0
2016-05-31T01:01:51.135Z,0
2016-05-31T01:02:51.263Z,0
2016-05-31T01:03:51.078Z,0
2016-05-31T01:04:51.221Z,0
2016-05-31T01:05:51.192Z,0
2016-05-31T01:06:51.180Z,0
2016-05-31T01:07:51.760Z,0
2016-05-31T01:08:51.138Z,0
2016-05-31T01:09:51.110Z,0
2016-05-31T01:10:50.940Z,0
2016-05-31T01:11:50.912Z,0
2016-05-31T01:12:50.915Z,0
2016-05-31T01:13:50.885Z,0
2016-05-31T01:14:50.998Z,0
2016-05-31T01:15:51.016Z,0
2016-05-31T01:16:50.815Z,0
2016-05-31T01:17:50.943Z,0
2016-05-31T01:18:50.774Z,0
2016-05-31T01:19:50.604Z,0
2016-05-31T01:20:50.904Z,0
2016-05-31T01:21:50.876Z,0
2016-05-31T01:22:50.925Z,0
2016-05-31T01:23:50.960Z,0
2016-05-31T01:24:50.681Z,0
2016-05-31T01:25:51.075Z,0
2016-05-31T01:26:50.764Z,0
2016-05-31T01:27:50.736Z,0
2016-05-31T01:28:50.567Z,0
2016-05-31T01:29:50.679Z,0
2016-05-31T01:30:50.681Z,0
2016-05-31T01:31:50.497Z,0
2016-05-31T01:32:50.624Z,0
2016-05-31T01:33:50.612Z,0
2016-05-31T01:34:50.427Z,0
2016-05-31T01:35:50.569Z,0
2016-05-31T01:36:50.401Z,0
2016-05-31T01:37:50.263Z,0
2016-05-31T01:38:50.656Z,0
2016-05-31T01:39:50.487Z,0
2016-05-31T01:40:50.458Z,0
2016-05-31T01:41:50.445Z,0
2016-05-31T01:42:50.117Z,0
2016-05-31T01:43:50.419Z,0
2016-05-31T01:44:50.391Z,0
2016-05-31T01:45:50.378Z,0
2016-05-31T01:46:50.190Z,0
2016-05-31T01:47:50.162Z,0
2016-05-31T01:48:50.149Z,0
2016-05-31T01:49:50.293Z,0
2016-05-31T01:50:50.248Z,0
2016-05-31T01:51:50.235Z,0
2016-05-31T01:52:50.238Z,0
2016-05-31T01:53:50.193Z,0
2016-05-31T01:54:50.181Z,0
2016-05-31T01:55:49.996Z,0
2016-05-31T01:56:50.124Z,0
2016-05-31T01:57:50.111Z,0
2016-05-31T01:58:50.082Z,0
2016-05-31T01:59:50.053Z,0
2016-05-31T02:00:49.884Z,0
2016-05-31T02:01:50.028Z,0
2016-05-31T02:02:50.000Z,0
2016-05-31T02:03:49.970Z,0
2016-05-31T02:04:49.958Z,0
2016-05-31T02:05:49.929Z,0
2016-05-31T02:06:49.901Z,0
2016-05-31T02:07:51.169Z,0
2016-05-31T02:08:49.874Z,0
2016-05-31T02:09:49.690Z,0
2016-05-31T02:10:49.661Z,0
2016-05-31T02:11:49.649Z,0
2016-05-31T02:12:49.620Z,0
2016-05-31T02:13:49.763Z,0
2016-05-31T02:14:49.610Z,0
2016-05-31T02:15:49.738Z,0
2016-05-31T02:16:49.693Z,0
2016-05-31T02:17:49.508Z,0
2016-05-31T02:18:49.652Z,0
2016-05-31T02:19:49.639Z,0
2016-05-31T02:20:49.610Z,0
2016-05-31T02:21:49.582Z,0
2016-05-31T02:22:49.646Z,0
2016-05-31T02:23:49.540Z,0
2016-05-31T02:24:49.574Z,0
2016-05-31T02:25:49.499Z,0
2016-05-31T02:26:49.330Z,0
2016-05-31T02:27:49.489Z,0
2016-05-31T02:28:49.429Z,0
2016-05-31T02:29:49.276Z,0
2016-05-31T02:30:49.387Z,0
2016-05-31T02:31:49.218Z,0
2016-05-31T02:32:49.361Z,0
2016-05-31T02:33:49.333Z,0
2016-05-31T02:34:49.320Z,0
2016-05-31T02:35:49.292Z,0
2016-05-31T02:36:49.153Z,0
2016-05-31T02:37:49.328Z,0
2016-05-31T02:38:49.221Z,0
2016-05-31T02:39:49.192Z,0
2016-05-31T02:40:49.195Z,0
2016-05-31T02:41:49.010Z,0
2016-05-31T02:42:49.154Z,0
2016-05-31T02:43:49.110Z,0
2016-05-31T02:44:48.941Z,0
2016-05-31T02:45:49.083Z,0
2016-05-31T02:46:49.055Z,0
2016-05-31T02:47:49.042Z,0
2016-05-31T02:48:49.013Z,0
2016-05-31T02:49:48.985Z,0
2016-05-31T02:50:48.816Z,0
2016-05-31T02:51:48.960Z,0
2016-05-31T02:52:48.977Z,0
2016-05-31T02:53:48.855Z,0
2016-05-31T02:54:48.889Z,0
2016-05-31T02:55:48.876Z,0
2016-05-31T02:56:48.832Z,0
2016-05-31T02:57:48.820Z,0
2016-05-31T02:58:48.790Z,0
2016-05-31T02:59:48.778Z,0
2016-05-31T03:00:48.764Z,0
2016-05-31T03:01:48.752Z,0
2016-05-31T03:02:48.708Z,0
2016-05-31T03:03:48.679Z,0
2016-05-31T03:04:48.650Z,0
2016-05-31T03:05:48.497Z,0
2016-05-31T03:06:48.640Z,0
2016-05-31T03:07:49.549Z,0
2016-05-31T03:08:48.475Z,5
2016-05-31T03:09:48.555Z,5
2016-05-31T03:10:48.542Z,5
2016-05-31T03:11:48.513Z,5
2016-05-31T03:12:48.343Z,5
2016-05-31T03:13:48.331Z,5
2016-05-31T03:14:48.443Z,5
2016-05-31T03:15:48.446Z,5
2016-05-31T03:16:48.402Z,5
2016-05-31T03:17:48.388Z,10
2016-05-31T03:18:48.391Z,10
2016-05-31T03:19:48.207Z,10
2016-05-31T03:20:48.318Z,10
2016-05-31T03:21:48.305Z,10
2016-05-31T03:22:49.293Z,10
2016-05-31T03:23:47.983Z,15
2016-05-31T03:24:48.251Z,15
2016-05-31T03:25:48.066Z,15
2016-05-31T03:26:48.054Z,15
2016-05-31T03:27:48.165Z,15
2016-05-31T03:28:48.152Z,15
2016-05-31T03:29:48.140Z,15
2016-05-31T03:30:48.111Z,15
2016-05-31T03:31:48.082Z,15
2016-05-31T03:32:48.070Z,15
2016-05-31T03:33:48.041Z,15
2016-05-31T03:34:48.012Z,15
2016-05-31T03:35:48.000Z,15
2016-05-31T03:36:47.987Z,20
2016-05-31T03:37:48.630Z,20
2016-05-31T03:38:48.492Z,20
2016-05-31T03:39:47.933Z,20
2016-05-31T03:40:47.747Z,20
2016-05-31T03:41:47.875Z,25
2016-05-31T03:42:47.846Z,25
2016-05-31T03:43:47.833Z,30
2016-05-31T03:44:47.492Z,35
2016-05-31T03:45:47.791Z,40
2016-05-31T03:46:47.764Z,45
2016-05-31T03:47:47.750Z,45
2016-05-31T03:48:47.565Z,40
2016-05-31T03:49:47.710Z,45
2016-05-31T03:50:47.680Z,45
2016-05-31T03:51:47.651Z,45
2016-05-31T03:52:47.374Z,40
2016-05-31T03:53:47.532Z,40
2016-05-31T03:54:47.598Z,45
2016-05-31T03:55:47.569Z,45
2016-05-31T03:56:47.399Z,45
2016-05-31T03:57:47.543Z,50
2016-05-31T03:58:47.515Z,55
2016-05-31T03:59:47.329Z,55
2016-05-31T04:00:47.473Z,65
2016-05-31T04:01:47.287Z,60
2016-05-31T04:02:47.432Z,60
2016-05-31T04:03:47.418Z,60
2016-05-31T04:04:47.389Z,60
2016-05-31T04:05:47.362Z,65
2016-05-31T04:06:47.176Z,75
2016-05-31T04:07:48.038Z,80
2016-05-31T04:08:48.541Z,75
2016-05-31T04:09:47.279Z,75
2016-05-31T04:10:47.109Z,75
2016-05-31T04:11:47.236Z,70
2016-05-31T04:12:47.225Z,70
2016-05-31T04:13:47.039Z,75
2016-05-31T04:14:47.026Z,75
2016-05-31T04:15:47.138Z,75
2016-05-31T04:16:46.985Z,75
2016-05-31T04:17:47.113Z,80
2016-05-31T04:18:47.083Z,80
2016-05-31T04:19:47.086Z,80
2016-05-31T04:20:47.058Z,85
2016-05-31T04:21:47.029Z,90
2016-05-31T04:22:47.032Z,95
2016-05-31T04:23:46.863Z,85
2016-05-31T04:24:46.960Z,90
2016-05-31T04:25:46.946Z,85
2016-05-31T04:26:46.918Z,85
2016-05-31T04:27:46.921Z,85
2016-05-31T04:28:46.892Z,90
2016-05-31T04:29:46.722Z,90
2016-05-31T04:30:46.694Z,90
2016-05-31T04:31:46.666Z,90
2016-05-31T04:32:46.809Z,90
2016-05-31T04:33:46.780Z,95
2016-05-31T04:34:46.768Z,95
2016-05-31T04:35:46.754Z,95
2016-05-31T04:36:46.413Z,95
2016-05-31T04:37:47.026Z,95
2016-05-31T04:38:46.825Z,100
2016-05-31T04:39:46.656Z,100
2016-05-31T04:40:46.627Z,100
2016-05-31T04:41:46.615Z,100
2016-05-31T04:42:46.289Z,105
2016-05-31T04:43:46.572Z,105
2016-05-31T04:44:46.544Z,105
2016-05-31T04:45:46.547Z,105
2016-05-31T04:46:46.519Z,105
2016-05-31T04:47:46.505Z,105
2016-05-31T04:48:46.321Z,105
2016-05-31T04:49:46.449Z,110
2016-05-31T04:50:46.435Z,110
2016-05-31T04:51:46.251Z,110
2016-05-31T04:52:47.004Z,115
2016-05-31T04:53:47.585Z,115
2016-05-31T04:54:46.352Z,115
2016-05-31T04:55:46.324Z,130
2016-05-31T04:56:46.310Z,160
2016-05-31T04:57:46.282Z,170
2016-05-31T04:58:46.098Z,180
2016-05-31T04:59:46.240Z,235
2016-05-31T05:00:46.072Z,245
2016-05-31T05:01:46.215Z,225
2016-05-31T05:02:46.030Z,250
2016-05-31T05:03:46.018Z,225
2016-05-31T05:04:46.129Z,245
2016-05-31T05:05:46.117Z,245
2016-05-31T05:06:46.119Z,235
2016-05-31T05:07:45.982Z,210
2016-05-31T05:08:45.765Z,195
2016-05-31T05:09:46.049Z,205
2016-05-31T05:10:46.020Z,175
2016-05-31T05:11:46.038Z,145
2016-05-31T05:12:45.979Z,205
2016-05-31T05:13:45.950Z,200
2016-05-31T05:14:45.781Z,205
2016-05-31T05:15:45.941Z,250
2016-05-31T05:16:45.896Z,230
2016-05-31T05:17:45.883Z,170
2016-05-31T05:18:45.713Z,145
2016-05-31T05:19:45.702Z,135
2016-05-31T05:20:45.829Z,135
2016-05-31T05:21:45.800Z,135
2016-05-31T05:22:46.240Z,135
2016-05-31T05:23:45.743Z,135
2016-05-31T05:24:45.808Z,135
2016-05-31T05:25:45.732Z,135
2016-05-31T05:26:45.704Z,140
2016-05-31T05:27:45.535Z,140
2016-05-31T05:28:45.694Z,140
2016-05-31T05:29:45.649Z,140
2016-05-31T05:30:45.481Z,140
2016-05-31T05:31:45.624Z,145
2016-05-31T05:32:45.439Z,140
2016-05-31T05:33:45.410Z,145
2016-05-31T05:34:45.538Z,145
2016-05-31T05:35:45.370Z,145
2016-05-31T05:36:45.200Z,145
2016-05-31T05:37:46.109Z,145
2016-05-31T05:38:45.252Z,150
2016-05-31T05:39:45.458Z,155
2016-05-31T05:40:45.429Z,155
2016-05-31T05:41:45.416Z,155
2016-05-31T05:42:45.404Z,160
2016-05-31T05:43:45.375Z,165
2016-05-31T05:44:45.190Z,170
2016-05-31T05:45:45.317Z,170
2016-05-31T05:46:45.320Z,175
2016-05-31T05:47:45.292Z,180
2016-05-31T05:48:44.950Z,190
2016-05-31T05:49:45.266Z,195
2016-05-31T05:50:45.237Z,205
2016-05-31T05:51:45.209Z,215
2016-05-31T05:52:44.993Z,230
2016-05-31T05:53:45.338Z,235
2016-05-31T05:54:44.999Z,245
2016-05-31T05:55:45.157Z,260
2016-05-31T05:56:44.957Z,265
2016-05-31T05:57:45.108Z,300
2016-05-31T05:58:45.107Z,400
2016-05-31T05:59:45.121Z,555
2016-05-31T06:00:45.150Z,725
2016-05-31T06:01:45.147Z,895
2016-05-31T06:02:45.171Z,1040
2016-05-31T06:03:44.965Z,1130
2016-05-31T06:04:44.977Z,1125
2016-05-31T06:05:44.958Z,1140
2016-05-31T06:06:44.955Z,1160
2016-05-31T06:07:45.449Z,1165
2016-05-31T06:08:45.455Z,1180
2016-05-31T06:09:45.071Z,1225
2016-05-31T06:10:45.077Z,1230
2016-05-31T06:11:44.880Z,1215
2016-05-31T06:12:44.870Z,1220
2016-05-31T06:13:44.716Z,1230
2016-05-31T06:14:45.003Z,1225
2016-05-31T06:15:44.975Z,1215
2016-05-31T06:16:44.978Z,1225
2016-05-31T06:17:44.811Z,1235
2016-05-31T06:18:44.798Z,1275
2016-05-31T06:19:44.785Z,1280
2016-05-31T06:20:44.929Z,1305
2016-05-31T06:21:44.760Z,1310
2016-05-31T06:22:45.420Z,1330
2016-05-31T06:23:45.344Z,1340
2016-05-31T06:24:44.581Z,1330
2016-05-31T06:25:44.866Z,1390
2016-05-31T06:26:44.712Z,1430
2016-05-31T06:27:44.683Z,1430
2016-05-31T06:28:44.842Z,1425
2016-05-31T06:29:44.829Z,1405
2016-05-31T06:30:44.832Z,1395
2016-05-31T06:31:44.803Z,1400
2016-05-31T06:32:44.806Z,1400
2016-05-31T06:33:44.636Z,1415
2016-05-31T06:34:44.484Z,1415
2016-05-31T06:35:44.767Z,1415
2016-05-31T06:36:44.785Z,1405
2016-05-31T06:37:44.866Z,1410
2016-05-31T06:38:44.620Z,1400
2016-05-31T06:39:44.747Z,1400
2016-05-31T06:40:44.733Z,1425
2016-05-31T06:41:44.720Z,1435
2016-05-31T06:42:44.723Z,1445
2016-05-31T06:43:44.539Z,1470
2016-05-31T06:44:44.556Z,1495
2016-05-31T06:45:44.700Z,1525
2016-05-31T06:46:44.686Z,1525
2016-05-31T06:47:44.519Z,1515
2016-05-31T06:48:44.677Z,1480
2016-05-31T06:49:44.508Z,1485
2016-05-31T06:50:44.667Z,1490
2016-05-31T06:51:44.654Z,1505
2016-05-31T06:52:47.157Z,1530
2016-05-31T06:53:44.346Z,1555
2016-05-31T06:54:44.646Z,1570
2016-05-31T06:55:44.633Z,1595
2016-05-31T06:56:44.636Z,1620
2016-05-31T06:57:44.607Z,1575
2016-05-31T06:58:44.454Z,1585
2016-05-31T06:59:44.629Z,1610
2016-05-31T07:00:44.632Z,1625
2016-05-31T07:01:44.431Z,1640
2016-05-31T07:02:44.590Z,1690
2016-05-31T07:03:44.436Z,1680
2016-05-31T07:04:44.595Z,1670
2016-05-31T07:05:44.582Z,1670
2016-05-31T07:06:44.428Z,1635
2016-05-31T07:07:44.212Z,1615
2016-05-31T07:08:45.325Z,1595
2016-05-31T07:09:44.546Z,1550
2016-05-31T07:10:44.580Z,1560
2016-05-31T07:11:44.567Z,1595
2016-05-31T07:12:44.553Z,1625
2016-05-31T07:13:44.401Z,1670
2016-05-31T07:14:44.544Z,1690
2016-05-31T07:15:44.547Z,1705
2016-05-31T07:16:44.392Z,1705
2016-05-31T07:17:44.520Z,1680
2016-05-31T07:18:44.522Z,1640
2016-05-31T07:19:44.526Z,1590
2016-05-31T07:20:44.528Z,1620
2016-05-31T07:21:44.375Z,1650
2016-05-31T07:22:44.799Z,1670
2016-05-31T07:23:44.256Z,1690
2016-05-31T07:24:44.352Z,1640
2016-05-31T07:25:44.526Z,1725
2016-05-31T07:26:44.341Z,795
2016-05-31T07:27:44.344Z,1660
2016-05-31T07:28:44.347Z,425
2016-05-31T07:29:44.490Z,360
2016-05-31T07:30:44.493Z,325
2016-05-31T07:31:44.512Z,345
2016-05-31T07:32:44.046Z,625
2016-05-31T07:33:44.329Z,2000
2016-05-31T07:34:44.473Z,1665
2016-05-31T07:35:44.318Z,1915
2016-05-31T07:37:45.731Z,525
2016-05-31T07:38:44.796Z,855
2016-05-31T07:39:44.298Z,465
2016-05-31T07:40:44.473Z,340
2016-05-31T07:41:44.132Z,310
2016-05-31T07:42:44.447Z,1020
2016-05-31T07:43:44.450Z,1815
2016-05-31T07:44:43.983Z,2015
2016-05-31T07:45:44.440Z,1930
2016-05-31T07:46:44.412Z,610
2016-05-31T07:47:44.430Z,1895
2016-05-31T07:48:44.244Z,645
2016-05-31T07:49:44.403Z,445
2016-05-31T07:50:44.078Z,1920
2016-05-31T07:51:44.394Z,2010
2016-05-31T07:52:45.114Z,2025
2016-05-31T07:53:45.274Z,440
2016-05-31T07:54:44.369Z,335
2016-05-31T07:55:44.217Z,290
2016-05-31T07:56:44.219Z,300
2016-05-31T07:57:44.347Z,315
2016-05-31T07:58:44.177Z,330
2016-05-31T07:59:44.352Z,360
2016-05-31T08:00:44.340Z,400
2016-05-31T08:01:44.327Z,475
2016-05-31T08:02:44.313Z,610
2016-05-31T08:03:44.331Z,510
2016-05-31T08:04:44.304Z,740
2016-05-31T08:05:44.291Z,735
2016-05-31T08:06:44.277Z,955
2016-05-31T08:07:44.279Z,430
2016-05-31T08:08:44.282Z,445
2016-05-31T08:09:44.003Z,2035
2016-05-31T08:10:44.257Z,2095
2016-05-31T08:11:44.229Z,445
2016-05-31T08:12:44.075Z,360
2016-05-31T08:13:44.217Z,320
2016-05-31T08:14:44.206Z,305
2016-05-31T08:15:44.067Z,305
2016-05-31T08:16:44.211Z,345
2016-05-31T08:17:44.197Z,385
2016-05-31T08:18:44.028Z,410
2016-05-31T08:19:44.171Z,435
2016-05-31T08:20:44.158Z,480
2016-05-31T08:21:44.161Z,550
2016-05-31T08:22:44.149Z,505
2016-05-31T08:23:44.526Z,475
2016-05-31T08:24:43.950Z,485
2016-05-31T08:25:43.969Z,590
2016-05-31T08:26:44.097Z,655
2016-05-31T08:27:43.787Z,655
2016-05-31T08:28:44.071Z,1625
2016-05-31T08:29:44.073Z,1115
2016-05-31T08:30:44.077Z,2245
2016-05-31T08:31:44.048Z,2120
2016-05-31T08:32:43.879Z,2045
2016-05-31T08:33:43.865Z,1245
2016-05-31T08:34:43.884Z,2115
2016-05-31T08:35:44.012Z,1360
2016-05-31T08:36:43.998Z,555
2016-05-31T08:37:44.096Z,580
2016-05-31T08:38:43.692Z,2135
2016-05-31T08:39:43.835Z,570
2016-05-31T08:40:50.087Z,885
2016-05-31T08:41:50.309Z,615
2016-05-31T08:42:50.109Z,2015
2016-05-31T08:43:47.533Z,1465
2016-05-31T08:44:48.801Z,1830
2016-05-31T08:45:47.445Z,535
2016-05-31T08:46:50.478Z,485
2016-05-31T08:47:50.481Z,440
2016-05-31T08:48:50.625Z,490
2016-05-31T08:49:50.347Z,505
2016-05-31T08:50:50.692Z,480
2016-05-31T08:51:49.523Z,435
2016-05-31T08:52:49.979Z,365
2016-05-31T08:53:46.700Z,300
2016-05-31T08:54:50.250Z,260
2016-05-31T08:55:50.441Z,240
2016-05-31T08:56:50.615Z,225
2016-05-31T08:57:49.664Z,215
2016-05-31T08:58:43.667Z,215
2016-05-31T08:59:43.669Z,205
2016-05-31T09:00:43.797Z,195
2016-05-31T09:01:43.800Z,180
2016-05-31T09:02:43.771Z,170
2016-05-31T09:03:43.774Z,165
2016-05-31T09:04:49.668Z,165
2016-05-31T09:05:48.201Z,165
2016-05-31T09:06:50.329Z,185
2016-05-31T09:07:43.770Z,210
2016-05-31T09:08:44.179Z,260
2016-05-31T09:09:43.712Z,310
2016-05-31T09:10:43.684Z,345
2016-05-31T09:11:43.514Z,335
2016-05-31T09:12:50.689Z,300
2016-05-31T09:13:49.973Z,245
2016-05-31T09:14:50.039Z,195
2016-05-31T09:15:50.181Z,165
2016-05-31T09:16:50.403Z,145
2016-05-31T09:17:50.546Z,135
2016-05-31T09:18:43.596Z,130
2016-05-31T09:19:43.427Z,125
2016-05-31T09:20:43.570Z,125
2016-05-31T09:21:43.572Z,130
2016-05-31T09:22:44.342Z,140
2016-05-31T09:23:44.046Z,155
2016-05-31T09:24:43.206Z,175
2016-05-31T09:25:43.521Z,200
2016-05-31T09:26:43.492Z,230
2016-05-31T09:27:43.463Z,280
2016-05-31T09:28:43.467Z,345
2016-05-31T09:29:43.469Z,420
2016-05-31T09:30:43.441Z,495
2016-05-31T09:31:43.427Z,555
2016-05-31T09:32:43.400Z,625
2016-05-31T09:33:43.385Z,660
2016-05-31T09:34:43.218Z,660
2016-05-31T09:35:43.376Z,645
2016-05-31T09:36:43.362Z,640
2016-05-31T09:37:43.241Z,630
2016-05-31T09:38:43.197Z,630
2016-05-31T09:39:43.324Z,625
2016-05-31T09:40:43.312Z,605
2016-05-31T09:41:43.298Z,580
2016-05-31T09:42:43.114Z,575
2016-05-31T09:43:43.256Z,570
2016-05-31T09:44:43.275Z,560
2016-05-31T09:45:43.247Z,550
2016-05-31T09:46:43.234Z,555
2016-05-31T09:47:43.252Z,590
2016-05-31T09:48:43.208Z,630
2016-05-31T09:49:43.054Z,665
2016-05-31T09:50:43.026Z,680
2016-05-31T09:51:43.169Z,690
2016-05-31T09:52:43.484Z,695
2016-05-31T09:53:42.955Z,670
2016-05-31T09:54:43.130Z,630
2016-05-31T09:55:43.133Z,590
2016-05-31T09:56:43.105Z,575
2016-05-31T09:57:43.075Z,570
2016-05-31T09:58:43.094Z,585
2016-05-31T09:59:43.065Z,585
2016-05-31T10:00:43.053Z,575
2016-05-31T10:01:43.040Z,590
2016-05-31T10:02:42.886Z,615
2016-05-31T10:03:42.857Z,590
2016-05-31T10:04:42.844Z,545
2016-05-31T10:05:42.846Z,545
2016-05-31T10:06:43.022Z,525
2016-05-31T10:07:42.977Z,495
2016-05-31T10:08:43.090Z,500
2016-05-31T10:09:42.967Z,530
2016-05-31T10:10:42.940Z,565
2016-05-31T10:11:42.926Z,575
2016-05-31T10:12:42.913Z,570
2016-05-31T10:13:42.900Z,565
2016-05-31T10:14:42.903Z,535
2016-05-31T10:15:42.889Z,510
2016-05-31T10:16:42.877Z,480
2016-05-31T10:17:42.848Z,445
2016-05-31T10:18:42.851Z,420
2016-05-31T10:19:42.838Z,425
2016-05-31T10:20:42.842Z,460
2016-05-31T10:21:42.844Z,495
2016-05-31T10:22:44.439Z,495
2016-05-31T10:23:42.912Z,460
2016-05-31T10:24:42.633Z,445
2016-05-31T10:25:42.838Z,450
2016-05-31T10:26:42.591Z,435
2016-05-31T10:27:42.750Z,385
2016-05-31T10:28:42.425Z,360
2016-05-31T10:29:42.708Z,370
2016-05-31T10:30:42.711Z,415
2016-05-31T10:31:42.699Z,480
2016-05-31T10:32:42.701Z,525
2016-05-31T10:33:42.672Z,545
2016-05-31T10:34:42.644Z,545
2016-05-31T10:35:42.506Z,540
2016-05-31T10:36:42.337Z,520
2016-05-31T10:37:43.277Z,500
2016-05-31T10:38:42.671Z,470
2016-05-31T10:39:42.595Z,455
2016-05-31T10:40:42.441Z,470
2016-05-31T10:41:42.585Z,505
2016-05-31T10:42:42.556Z,560
2016-05-31T10:43:42.543Z,600
2016-05-31T10:44:42.531Z,610
2016-05-31T10:45:42.376Z,620
2016-05-31T10:46:42.364Z,630
2016-05-31T10:47:42.335Z,635
2016-05-31T10:48:42.494Z,625
2016-05-31T10:49:42.341Z,615
2016-05-31T10:50:42.468Z,595
2016-05-31T10:51:42.284Z,580
2016-05-31T10:52:42.973Z,575
2016-05-31T10:53:42.444Z,585
2016-05-31T10:54:42.261Z,595
2016-05-31T10:55:42.263Z,595
2016-05-31T10:56:42.406Z,585
2016-05-31T10:57:42.378Z,560
2016-05-31T10:58:42.208Z,535
2016-05-31T10:59:42.352Z,530
2016-05-31T11:00:42.355Z,515
2016-05-31T11:01:42.341Z,505
2016-05-31T11:02:42.329Z,495
2016-05-31T11:03:42.160Z,480
2016-05-31T11:04:42.334Z,470
2016-05-31T11:05:42.290Z,450
2016-05-31T11:06:42.293Z,415
2016-05-31T11:07:43.498Z,380
2016-05-31T11:08:42.221Z,355
2016-05-31T11:09:42.254Z,355
2016-05-31T11:10:42.084Z,360
2016-05-31T11:11:42.056Z,370
2016-05-31T11:12:42.215Z,385
2016-05-31T11:13:42.061Z,390
2016-05-31T11:14:42.190Z,405
2016-05-31T11:15:42.020Z,435
2016-05-31T11:16:42.023Z,455
2016-05-31T11:17:42.151Z,460
2016-05-31T11:18:42.137Z,455
2016-05-31T11:19:42.125Z,465
2016-05-31T11:20:42.127Z,490
2016-05-31T11:21:42.098Z,525
2016-05-31T11:22:42.101Z,560
2016-05-31T11:23:42.698Z,575
2016-05-31T11:24:42.075Z,575
2016-05-31T11:25:42.047Z,570
2016-05-31T11:26:42.081Z,560
2016-05-31T11:27:42.036Z,545
2016-05-31T11:28:42.024Z,530
2016-05-31T11:29:42.027Z,540
2016-05-31T11:30:41.997Z,555
2016-05-31T11:31:41.985Z,575
2016-05-31T11:32:41.815Z,590
2016-05-31T11:33:41.975Z,590
2016-05-31T11:34:41.805Z,590
2016-05-31T11:35:41.949Z,580
2016-05-31T11:36:41.779Z,565
2016-05-31T11:37:43.251Z,545
2016-05-31T11:38:42.268Z,525
2016-05-31T11:39:41.740Z,515
2016-05-31T11:40:41.885Z,515
2016-05-31T11:41:41.887Z,510
2016-05-31T11:42:41.857Z,505
2016-05-31T11:43:41.705Z,500
2016-05-31T11:44:41.863Z,490
2016-05-31T11:45:41.820Z,425
2016-05-31T11:46:41.823Z,380
2016-05-31T11:47:41.809Z,370
2016-05-31T11:48:41.639Z,380
2016-05-31T11:49:41.767Z,375
2016-05-31T11:50:41.754Z,340
2016-05-31T11:51:41.757Z,305
2016-05-31T11:52:43.448Z,280
2016-05-31T11:53:41.637Z,265
2016-05-31T11:54:41.719Z,255
2016-05-31T11:55:41.564Z,255
2016-05-31T11:56:41.692Z,265
2016-05-31T11:57:41.695Z,295
2016-05-31T11:58:41.667Z,340
2016-05-31T11:59:41.685Z,395
2016-05-31T12:00:41.641Z,445
2016-05-31T12:01:41.643Z,485
2016-05-31T12:02:41.630Z,490
2016-05-31T12:03:41.619Z,470
2016-05-31T12:04:41.589Z,460
2016-05-31T12:05:41.592Z,455
2016-05-31T12:06:41.594Z,455
2016-05-31T12:07:41.581Z,445
2016-05-31T12:08:42.428Z,430
2016-05-31T12:09:41.541Z,430
2016-05-31T12:10:41.371Z,440
2016-05-31T12:11:41.530Z,435
2016-05-31T12:12:41.517Z,425
2016-05-31T12:13:41.488Z,415
2016-05-31T12:14:41.194Z,405
2016-05-31T12:15:41.493Z,400
2016-05-31T12:16:41.449Z,395
2016-05-31T12:17:41.437Z,380
2016-05-31T12:18:41.283Z,375
2016-05-31T12:19:41.411Z,370
2016-05-31T12:20:41.398Z,400
2016-05-31T12:21:41.401Z,430
2016-05-31T12:22:41.998Z,450
2016-05-31T12:23:42.172Z,460
2016-05-31T12:24:41.345Z,470
2016-05-31T12:25:41.348Z,485
2016-05-31T12:26:41.336Z,495
2016-05-31T12:27:41.323Z,480
2016-05-31T12:28:41.153Z,465
2016-05-31T12:29:41.297Z,455
2016-05-31T12:30:41.300Z,460
2016-05-31T12:31:41.114Z,460
2016-05-31T12:32:41.274Z,455
2016-05-31T12:33:41.244Z,435
2016-05-31T12:34:41.076Z,400
2016-05-31T12:35:41.219Z,370
2016-05-31T12:36:41.238Z,345
2016-05-31T12:37:43.225Z,340
2016-05-31T12:38:41.618Z,355
2016-05-31T12:39:41.168Z,365
2016-05-31T12:40:41.154Z,390
2016-05-31T12:41:41.001Z,415
2016-05-31T12:42:41.144Z,440
2016-05-31T12:43:41.132Z,455
2016-05-31T12:44:40.962Z,455
2016-05-31T12:45:41.106Z,460
2016-05-31T12:46:41.108Z,465
2016-05-31T12:47:41.064Z,475
2016-05-31T12:48:40.755Z,485
2016-05-31T12:49:40.913Z,490
2016-05-31T12:50:41.041Z,490
2016-05-31T12:51:40.731Z,490
2016-05-31T12:52:41.031Z,500
2016-05-31T12:53:41.017Z,515
2016-05-31T12:54:41.005Z,510
2016-05-31T12:55:40.976Z,500
2016-05-31T12:56:40.964Z,485
2016-05-31T12:57:40.966Z,495
2016-05-31T12:58:40.953Z,490
2016-05-31T12:59:40.940Z,480
2016-05-31T13:00:40.771Z,475
2016-05-31T13:01:40.914Z,470
2016-05-31T13:02:40.902Z,450
2016-05-31T13:03:40.905Z,420
2016-05-31T13:04:40.875Z,390
2016-05-31T13:05:40.878Z,365
2016-05-31T13:06:40.865Z,355
2016-05-31T13:07:42.322Z,345
2016-05-31T13:08:41.777Z,320
2016-05-31T13:09:40.811Z,290
2016-05-31T13:10:40.798Z,270
2016-05-31T13:11:40.816Z,250
2016-05-31T13:12:40.787Z,250
2016-05-31T13:13:40.774Z,245
2016-05-31T13:14:40.762Z,215
2016-05-31T13:15:40.608Z,195
2016-05-31T13:16:40.579Z,185
2016-05-31T13:17:40.567Z,180
2016-05-31T13:18:40.726Z,180
2016-05-31T13:19:40.540Z,185
2016-05-31T13:20:40.684Z,185
2016-05-31T13:21:40.531Z,185
2016-05-31T13:22:41.471Z,185
2016-05-31T13:23:41.176Z,190
2016-05-31T13:24:40.664Z,190
2016-05-31T13:25:40.338Z,195
2016-05-31T13:26:40.623Z,200
2016-05-31T13:27:40.594Z,210
2016-05-31T13:28:40.580Z,220
2016-05-31T13:29:40.568Z,235
2016-05-31T13:30:40.570Z,260
2016-05-31T13:31:40.385Z,280
2016-05-31T13:32:40.529Z,290
2016-05-31T13:33:40.360Z,290
2016-05-31T13:34:40.503Z,290
2016-05-31T13:35:40.490Z,285
2016-05-31T13:36:40.321Z,275
2016-05-31T13:37:41.527Z,270
2016-05-31T13:38:40.310Z,275
2016-05-31T13:39:40.438Z,295
2016-05-31T13:40:40.425Z,300
2016-05-31T13:41:40.412Z,315
2016-05-31T13:42:40.244Z,340
2016-05-31T13:43:40.215Z,335
2016-05-31T13:44:40.374Z,325
2016-05-31T13:45:40.049Z,330
2016-05-31T13:46:40.348Z,345
2016-05-31T13:47:40.350Z,340
2016-05-31T13:48:40.337Z,340
2016-05-31T13:49:40.154Z,335
2016-05-31T13:50:40.140Z,330
2016-05-31T13:51:39.971Z,320
2016-05-31T13:52:40.520Z,325
2016-05-31T13:53:40.148Z,330
2016-05-31T13:54:40.245Z,340
2016-05-31T13:55:40.231Z,340
2016-05-31T13:56:40.218Z,335
2016-05-31T13:57:40.065Z,315
2016-05-31T13:58:40.052Z,305
2016-05-31T13:59:40.023Z,305